1970 Severe Tropical Cyclone ADA (1970003S16165)


IBTrACS version v04r00. Visit IBTrACS website for data access.
Please direct all questions to the IBTrACS Q and A forum

Storm track - Intensity - Wind Radii - Intensity Data - Source Data - All data

Summary Information

Storm ID 1970003S16165
Start Jan 2 23Z
Landfall Jan 17 21Z
Max Intensity 85 kt (Jan 17 12Z), 962 mb (Jan 17 11Z)
End Jan 19 00Z
ATCF IDs ,SH051970
Track status Best track data.

Storm track plot

Map of storm track

Intensity plots

Map of storm track

Radial wind information

No radial wind information for this storm


Position and Intensity Table

BASIN ISO_TIME_________ NATURE LAT LON WMO WIND WMO PRES USA WIND BOM PRES WELLINGTON WIND WELLINGTON PRES DS824 WIND DS824 PRES TD9636 WIND NEUMANN WIND NEUMANN PRES
degrees north degrees east kts mb kts mb kts mb kts mb kts kts mb
SP 1970-01-02 23:00:00 NR -15.80 165.10 1002 10
SP 1970-01-03 00:00:00 TS -15.83 165.02 30 997 10 1002 30 997 25 1002 10 25 1002
SP 03:00:00 TS -15.91 164.61 12 1002 30 997 25 1002 11 25 1002
SP 06:00:00 TS -15.98 164.20 15 1002 30 997 25 1002 12 25 1002
SP 09:00:00 TS -16.05 163.83 15 1002 30 997 25 1002 14 25 1002
SP 11:00:00 TS -16.10 163.58 15 1002 30 997 25 1002 15 25 1002
SP 12:00:00 TS -16.12 163.47 30 997 15 1002 30 997 25 1002 14 25 1002
SP 15:00:00 TS -16.20 163.11 12 1002 30 997 25 1002 13 25 1002
SP 18:00:00 TS -16.29 162.76 10 1002 30 997 25 1002 12 25 1002
SP 21:00:00 TS -16.37 162.42 10 1002 30 997 25 1002 10 25 1002
SP 23:00:00 TS -16.42 162.19 10 1002 30 997 25 1002 10 25 1002
SP 1970-01-04 00:00:00 TS -16.45 162.06 30 997 10 1002 30 997 25 1002 10 25 1002
SP 03:00:00 TS -16.55 161.68 10 1002 30 997 25 1002 11 25 1002
SP 06:00:00 TS -16.65 161.30 10 1002 30 997 25 1002 12 25 1002
SP 09:00:00 TS -16.75 160.94 12 1002 30 997 25 1002 14 25 1002
SP 11:00:00 TS -16.81 160.70 14 1002 30 997 25 1002 15 25 1002
SP 12:00:00 TS -16.84 160.58 30 997 15 1002 30 997 25 1002 15 25 1002
SP 15:00:00 TS -16.89 160.20 17 1002 30 997 25 1002 18 25 1002
SP 18:00:00 TS -16.93 159.83 20 1002 30 997 25 1002 20 25 1002
SP 21:00:00 TS -16.97 159.49 22 1002 30 997 25 1002 23 25 1002
SP 23:00:00 TS -16.99 159.28 1002 24 1002 30 997 25 1002 25 25 1002
SP 1970-01-05 00:00:00 TS -17.00 159.17 25 1002 30 997 25 1002 24 25 1002
SP 03:00:00 TS -17.02 158.86 22 1002 30 997 25 1002 23 25 1002
SP 06:00:00 TS -17.02 158.56 20 1002 30 997 25 1002 22 25 1002
SP 09:00:00 TS -17.02 158.27 20 1002 30 997 25 1002 20 25 1002
SP 11:00:00 TS -17.01 158.07 1002 20 1002 30 997 25 1002 20 25 1002
SP 12:00:00 TS -17.00 157.97 20 1002 30 997 25 1002 20 25 1002
SP 15:00:00 TS -16.95 157.65 22 1002 30 997 25 1002 21 25 1002
SP 18:00:00 TS -16.89 157.34 25 1002 30 997 25 1002 22 25 1002
SP 21:00:00 TS -16.83 157.04 25 1002 30 997 25 1002 24 25 1002
SP 23:00:00 TS -16.79 156.86 1003 25 1003 30 997 25 1002 25 25 1002
SP 1970-01-06 00:00:00 TS -16.76 156.78 25 1003 30 997 25 1003 25 25 1003
SP 03:00:00 TS -16.69 156.60 27 1003 30 997 25 1003 26 25 1003
SP 06:00:00 TS -16.60 156.48 30 1003 30 997 25 1003 27 25 1003
SP 09:00:00 TS -16.52 156.36 30 1003 30 997 25 1003 29 25 1003
SP 11:00:00 TS -16.47 156.30 1003 30 1003 30 997 25 1003 30 25 1003
SP 12:00:00 TS -16.43 156.26 30 1003 30 997 25 1003 28 25 1003
SP 15:00:00 TS -16.31 156.15 25 1003 30 997 23 1003 25 25 1003
SP 18:00:00 TS -16.18 156.05 20 1003 30 997 22 1003 21 25 1003
SP 21:00:00 TS -16.06 155.98 17 1003 30 997 21 1003 17 22 1003
SP 23:00:00 TS -15.98 155.95 1004 15 1004 30 997 20 1003 15 20 1003
SP 1970-01-07 00:00:00 TS -15.95 155.94 15 1004 30 997 20 1004 15 20 1004
SP 03:00:00 TS -15.84 155.92 17 1004 30 997 20 1004 16 20 1004
SP 06:00:00 TS -15.72 155.93 20 1004 30 997 20 1004 17 20 1004
SP 09:00:00 TS -15.61 155.93 20 1004 30 997 20 1004 19 20 1004
SP 11:00:00 TS -15.53 155.94 1004 20 1004 30 997 20 1004 20 20 1004
SP 12:00:00 TS -15.49 155.94 20 1004 30 997 20 1004 20 20 1004
SP 15:00:00 TS -15.37 155.96 20 1004 30 997 20 1004 20 20 1004
SP 18:00:00 TS -15.26 155.99 20 1004 30 997 20 1004 20 20 1004
SP 21:00:00 TS -15.14 156.01 20 1004 30 997 20 1004 20 20 1004
SP 23:00:00 TS -15.07 156.02 1004 20 1004 30 997 20 1004 20 20 1004
SP 1970-01-08 00:00:00 TS -15.04 156.03 20 1004 30 997 20 1004 19 20 1004
SP 03:00:00 TS -14.95 156.06 17 1004 30 997 20 1004 18 20 1004
SP 06:00:00 TS -14.88 156.09 15 1004 30 997 20 1004 17 20 1004
SP 09:00:00 TS -14.82 156.11 15 1004 30 997 20 1004 15 20 1004
SP 11:00:00 TS -14.78 156.13 1004 15 1004 30 997 20 1004 15 20 1004
SP 12:00:00 TS -14.75 156.15 15 1004 30 997 20 1004 15 20 1004
SP 15:00:00 TS -14.64 156.20 15 1004 30 997 20 1004 15 20 1004
SP 18:00:00 TS -14.51 156.27 15 1004 30 997 20 1004 15 20 1004
SP 21:00:00 TS -14.41 156.34 15 1004 30 997 20 1004 15 20 1004
SP 23:00:00 TS -14.34 156.39 1004 15 1004 30 997 20 1004 15 20 1004
SP 1970-01-09 00:00:00 TS -14.31 156.42 15 1004 30 997 20 1004 15 20 1004
SP 03:00:00 TS -14.21 156.48 15 1004 30 997 20 1004 15 20 1004
SP 06:00:00 TS -14.10 156.56 15 1004 30 997 20 1004 15 20 1004
SP 09:00:00 TS -13.99 156.67 15 1004 30 997 20 1004 15 20 1004
SP 11:00:00 TS -13.89 156.76 1004 15 1004 30 997 20 1004 15 20 1004
SP 12:00:00 TS -13.84 156.82 15 1004 30 997 20 1004 15 20 1004
SP 15:00:00 TS -13.63 157.02 17 1004 30 997 20 1004 16 20 1004
SP 18:00:00 TS -13.40 157.26 20 1004 30 997 20 1004 17 20 1004
SP 21:00:00 TS -13.15 157.52 20 1004 30 997 20 1004 19 20 1004
SP 23:00:00 TS -13.00 157.70 1004 20 1004 30 997 20 1004 20 20 1004
SP 1970-01-10 00:00:00 TS -12.92 157.78 20 1004 30 997 20 1004 20 20 1004
SP 03:00:00 TS -12.75 158.01 20 1004 30 997 20 1004 20 20 1004
SP 06:00:00 TS -12.60 158.25 20 1004 30 997 20 1004 20 20 1004
SP 09:00:00 TS -12.46 158.50 20 1004 30 997 20 1004 20 20 1004
SP 11:00:00 TS -12.37 158.67 1004 20 1004 30 997 20 1004 20 20 1004
SP 12:00:00 TS -12.33 158.75 20 1004 30 997 20 1004 20 20 1004
SP 15:00:00 TS -12.21 159.02 20 1004 30 997 20 1004 20 20 1004
SP 18:00:00 TS -12.10 159.29 20 1004 30 997 20 1004 20 20 1004
SP 21:00:00 TS -11.99 159.58 20 1004 30 997 20 1004 20 20 1004
SP 23:00:00 TS -11.92 159.77 1004 20 1004 30 997 20 1004 20 20 1004
SP 1970-01-11 00:00:00 TS -11.89 159.87 20 1004 30 997 20 1004 20 20 1004
SP 03:00:00 TS -11.78 160.13 22 1004 30 997 20 1004 23 20 1004
SP 06:00:00 TS -11.68 160.38 25 1004 30 997 20 1004 25 20 1004
SP 09:00:00 TS -11.59 160.63 27 1004 30 997 20 1004 28 20 1004
SP 11:00:00 TS -11.53 160.80 29 1004 30 997 20 1004 30 20 1004
SP 12:00:00 TS -11.51 160.88 30 997 30 1004 30 997 20 1004 28 20 1004
SP 15:00:00 TS -11.42 161.14 25 1004 30 997 20 1004 23 20 1004
SP 18:00:00 TS -11.37 161.40 20 1004 30 997 20 1004 18 20 1004
SP 21:00:00 TS -11.34 161.68 15 1004 30 997 20 1004 13 20 1004
SP 23:00:00 TS -11.34 161.86 11 1004 30 997 20 1004 10 20 1004
SP 1970-01-12 00:00:00 TS -11.34 161.96 30 997 10 1004 30 997 20 1004 10 20 1004
SP 03:00:00 TS -11.38 162.22 12 1004 30 997 20 1004 13 20 1004
SP 06:00:00 TS -11.45 162.47 15 1004 30 997 20 1004 15 20 1004
SP 09:00:00 TS -11.55 162.74 17 1004 30 997 20 1004 18 20 1004
SP 11:00:00 TS -11.63 162.91 19 1004 30 997 20 1004 20 20 1004
SP 12:00:00 TS -11.67 162.98 30 997 20 1004 30 997 20 1004 19 20 1004
SP 15:00:00 TS -11.81 163.16 17 1004 30 997 20 1004 18 20 1004
SP 17:00:00 TS -11.93 163.25 15 1004 30 997 20 1004 17 20 1004
SP 18:00:00 TS -11.98 163.28 15 1004 30 997 20 1004 17 20 1004
SP 21:00:00 TS -12.17 163.36 15 1004 30 997 20 1004 15 20 1004
SP 23:00:00 TS -12.30 163.37 15 1004 30 997 20 1004 15 20 1004
SP 1970-01-13 00:00:00 TS -12.38 163.37 30 997 15 1004 30 997 20 1004 15 20 1004
SP 03:00:00 TS -12.65 163.35 15 1004 30 997 20 1004 15 20 1004
SP 06:00:00 TS -12.94 163.28 15 1004 30 997 20 1004 15 20 1004
SP 09:00:00 TS -13.23 163.20 15 1004 30 997 20 1004 15 20 1004
SP 11:00:00 TS -13.41 163.13 15 1004 30 997 20 1004 15 20 1004
SP 12:00:00 TS -13.49 163.09 30 997 15 1004 30 997 20 1004 14 20 1004
SP 15:00:00 TS -13.71 162.92 12 1004 30 997 20 1004 13 20 1004
SP 18:00:00 TS -13.91 162.72 10 1004 30 997 20 1004 12 20 1004
SP 21:00:00 TS -14.12 162.52 10 1004 30 997 20 1004 10 20 1004
SP 23:00:00 TS -14.25 162.38 10 1004 30 997 20 1004 10 20 1004
SP 1970-01-14 00:00:00 TS -14.32 162.31 30 997 10 1004 30 997 20 1004 10 20 1004
SP 03:00:00 TS -14.53 162.08 10 1004 30 997 20 1004 10 20 1004
SP 06:00:00 TS -14.75 161.83 10 1004 30 997 20 1004 10 20 1004
SP 09:00:00 TS -14.99 161.57 10 1004 30 997 20 1004 10 20 1004
SP 11:00:00 TS -15.15 161.39 10 1004 30 997 20 1004 10 20 1004
SP 12:00:00 TS -15.22 161.31 30 997 10 1004 30 997 20 1004 10 20 1004
SP 15:00:00 TS -15.40 161.04 10 1004 32 995 20 1004 11 20 1004
SP 18:00:00 TS -15.57 160.74 10 1004 35 993 20 1004 12 20 1004
SP 21:00:00 TS -15.77 160.37 12 1004 37 991 20 1004 14 20 1004
SP 23:00:00 TS -15.92 160.09 14 1004 39 990 20 1004 15 20 1004
SP 1970-01-15 00:00:00 TS -16.01 159.93 15 1004 40 990 20 1004 16 20 1004
SP 03:00:00 TS -16.33 159.42 20 1004 40 990 20 1004 19 20 1004
SP 06:00:00 TS -16.67 158.87 25 1004 40 990 20 1004 23 20 1004
SP 09:00:00 TS -17.00 158.31 27 1004 40 990 20 1004 27 20 1004
SP 11:00:00 TS -17.21 157.93 1004 29 1004 40 990 20 1004 30 20 1004
SP 12:00:00 TS -17.31 157.75 30 1004 40 990 20 1004 29 20 1004
SP 15:00:00 TS -17.58 157.20 27 1004 40 990 20 1004 26 20 1004
SP 18:00:00 TS -17.83 156.64 25 1004 40 990 20 1004 24 20 1004
SP 21:00:00 TS -18.08 156.08 22 1004 40 990 20 1004 21 20 1004
SP 23:00:00 TS -18.23 155.71 1004 20 1004 40 990 20 1004 20 20 1004
SP 1970-01-16 00:00:00 TS -18.31 155.52 20 1003 40 990 20 1004 20 20 1004
SP 03:00:00 TS -18.50 154.96 22 1000 43 987 26 1001 23 27 1001
SP 06:00:00 TS -18.68 154.39 25 997 47 985 32 998 25 35 998
SP 08:00:00 TS -18.79 153.99 996 26 996 50 983 36 995 27 38 995
SP 09:00:00 TS -18.85 153.79 27 994 51 982 38 995 28 40 995
SP 11:00:00 TS -18.96 153.38 992 29 992 53 980 42 992 30 43 992
SP 12:00:00 TS -19.02 153.16 30 989 55 980 45 992 30 45 992
SP 14:00:00 TS -19.14 152.73 985 31 985 56 978 49 988 32 50 987
SP 15:00:00 TS -19.20 152.52 32 983 57 977 51 987 33 52 986
SP 18:00:00 TS -19.37 151.88 35 979 60 975 57 982 35 60 980
SP 21:00:00 TS -19.55 151.28 37 974 62 972 63 977 38 65 976
SP 23:00:00 TS -19.65 150.91 972 39 972 64 970 67 973 40 68 973
SP 1970-01-17 00:00:00 TS -19.69 150.73 40 971 65 970 70 972 40 70 972
SP 03:00:00 TS -19.76 150.27 40 969 66 968 72 969 40 75 969
SP 06:00:00 TS -19.80 149.86 40 966 67 967 75 967 40 80 967
SP 09:00:00 TS -19.87 149.50 47 964 68 966 77 964 40 82 965
SP 11:00:00 TS -19.93 149.30 963 52 963 69 965 79 962 40 84 963
SP 12:00:00 TS -19.97 149.21 55 962 70 965 80 962 55 85 963
SP 13:00:00 TS -20.01 149.13 962 57 962 69 965 80 962 70 85 962
SP 15:00:00 TS -20.10 149.01 962 62 962 68 966 80 962 70 85 962
SP 17:00:00 TS -20.19 148.92 962 67 962 67 967 80 962 70 85 962
SP 18:00:00 TS -20.24 148.88 70 962 67 967 80 962 70 85 962
SP 21:00:00 TS -20.38 148.77 70 963 66 968 80 963 70 82 963
SP 23:00:00 TS -20.48 148.72 964 70 964 65 969 80 963 70 80 963
SP 1970-01-18 00:00:00 TS -20.53 148.69 70 966 65 970 80 964 70 80 964
SP 03:00:00 TS -20.67 148.61 70 975 62 972 67 973 70 67 973
SP 05:00:00 TS -20.77 148.57 982 70 982 60 974 59 979 70 59 979
SP 06:00:00 TS -20.82 148.56 70 986 60 975 55 982 70 55 982
SP 08:00:00 TS -20.92 148.55 996 996 58 976 70 51 987
SP 09:00:00 TS -20.96 148.54 996 57 977 70 50 990
SP 11:00:00 TS -21.02 148.54 998 998 55 979 70 46 995
SP 12:00:00 TS -21.02 148.54 55 980 45 998
SP 15:00:00 NR -21.08 148.56 51 982
SP 18:00:00 NR -21.13 148.63 47 985
SP 21:00:00 NR -21.17 148.71 43 987
SP 1970-01-19 00:00:00 NR -21.20 148.80 40 990

Source Information

Agency Information
USA bsh051970.txt
TOKYO
CMA
HKO
NEWDELHI
REUNION
BOM IDCKMSTM0S.csv:Line=5464:ADA
NADI
WELLINGTON TC_BT_1967_2006.csv:Line=20:ADA
DS824 aus_area.dat:443:ADA
TD9636 cons_worldwide_trop_cyclone_18710101-19891231-006:Line=8295
TD9635
NEUMANN tracks.sh:Storm=255:ADA:BSH0570:BM383
MLC

All available IBTrACS Data

SEASON BASIN SUBBASIN ISO_TIME_________ NATURE LAT LON WMO WIND WMO PRES WMO AGENCY DIST2LAND LANDFALL IFLAG USA AGENCY USA ATCF_ID USA LAT USA LON USA WIND USA SSHS BOM LAT BOM LON BOM PRES BOM PRES_METHOD WELLINGTON LAT WELLINGTON LON WELLINGTON WIND WELLINGTON PRES DS824 LAT DS824 LON DS824 STAGE DS824 WIND DS824 PRES TD9636 LAT TD9636 LON TD9636 STAGE TD9636 WIND NEUMANN LAT NEUMANN LON NEUMANN CLASS NEUMANN WIND NEUMANN PRES STORM SPEED STORM DIR
Year degrees north degrees east kts mb km km degrees north degrees east kts 1 degrees north degrees east mb degrees north degrees east kts mb degrees north degrees east kts mb degrees north degrees east kts degrees north degrees east kts mb kts degrees
1970 SP MM 1970-01-02 23:00:00 NR -15.80 165.10 166 166 ______O___O___ -1 -15.80 165.10 1002 -15.80 165.10 1 10 5 248
1970 SP MM 1970-01-03 00:00:00 TS -15.83 165.02 30 997 wellington 177 177 O_____P_OOP_O_ jtwc_sh SH051970 -15.80 165.00 10 -1 -15.83 164.96 1002 -16.00 165.00 30 997 -15.80 165.00 TC 25 1002 -15.83 164.96 1 10 -15.80 165.30 TC 25 1002 7 257
1970 SP MM 03:00:00 TS -15.91 164.61 221 221 P_____P_PPP_P_ SH051970 -15.91 164.53 12 -1 -15.90 164.55 1002 -16.03 164.65 30 997 -15.88 164.59 TC 25 1002 -15.90 164.55 1 11 -15.84 164.90 TC 25 1002 8 259
1970 SP MM 06:00:00 TS -15.98 164.20 265 265 O_____P_PPP_O_ jtwc_sh SH051970 -16.00 164.10 15 -1 -15.98 164.14 1002 -16.07 164.30 30 997 -15.95 164.18 TC 25 1002 -15.98 164.14 1 12 -15.90 164.50 TC 25 1002 8 259
1970 SP MM 09:00:00 TS -16.05 163.83 309 309 P_____P_PPP_P_ SH051970 -16.05 163.73 15 -1 -16.05 163.75 1002 -16.12 163.95 30 997 -16.03 163.78 TC 25 1002 -16.05 163.75 1 14 -16.00 164.09 TC 25 1002 7 259
1970 SP MM 11:00:00 TS -16.10 163.58 330 330 P_____O_PPO_P_ SH051970 -16.08 163.51 15 -1 -16.10 163.50 1002 -16.17 163.72 30 997 -16.08 163.52 TC 25 1002 -16.10 163.50 1 15 -16.07 163.83 TC 25 1002 7 259
1970 SP MM 12:00:00 TS -16.12 163.47 30 997 wellington 341 341 O_____P_OOP_O_ jtwc_sh SH051970 -16.10 163.40 15 -1 -16.12 163.38 1002 -16.20 163.60 30 997 -16.10 163.40 TC 25 1002 -16.12 163.38 1 14 -16.10 163.70 TC 25 1002 7 257
1970 SP MM 15:00:00 TS -16.20 163.11 385 385 P_____P_PPP_P_ SH051970 -16.20 163.05 12 -1 -16.19 163.02 1002 -16.31 163.25 30 997 -16.17 163.04 TC 25 1002 -16.19 163.02 1 13 -16.15 163.34 TC 25 1002 7 256
1970 SP MM 18:00:00 TS -16.29 162.76 418 418 O_____P_PPP_O_ jtwc_sh SH051970 -16.30 162.70 10 -1 -16.27 162.68 1002 -16.44 162.90 30 997 -16.24 162.69 TC 25 1002 -16.27 162.68 1 12 -16.20 163.00 TC 25 1002 7 256
1970 SP MM 21:00:00 TS -16.37 162.42 461 461 P_____P_PPP_P_ SH051970 -16.35 162.36 10 -1 -16.34 162.33 1002 -16.58 162.55 30 997 -16.32 162.35 TC 25 1002 -16.34 162.33 1 10 -16.29 162.66 TC 25 1002 7 256
1970 SP MM 23:00:00 TS -16.42 162.19 470 470 P_____O_PPO_P_ SH051970 -16.38 162.12 10 -1 -16.40 162.10 1002 -16.66 162.32 30 997 -16.37 162.12 TC 25 1002 -16.40 162.10 1 10 -16.36 162.42 TC 25 1002 7 256
1970 SP MM 1970-01-04 00:00:00 TS -16.45 162.06 30 997 wellington 464 464 O_____P_OOP_O_ jtwc_sh SH051970 -16.40 162.00 10 -1 -16.43 161.98 1002 -16.70 162.20 30 997 -16.40 162.00 TC 25 1002 -16.43 161.98 1 10 -16.40 162.30 TC 25 1002 7 255
1970 SP MM 03:00:00 TS -16.55 161.68 475 475 P_____P_PPP_P_ SH051970 -16.49 161.60 10 -1 -16.54 161.60 1002 -16.80 161.85 30 997 -16.50 161.63 TC 25 1002 -16.54 161.60 1 11 -16.50 161.90 TC 25 1002 8 255
1970 SP MM 06:00:00 TS -16.65 161.30 490 490 O_____P_PPP_O_ jtwc_sh SH051970 -16.60 161.20 10 -1 -16.64 161.22 1002 -16.89 161.51 30 997 -16.61 161.25 TC 25 1002 -16.64 161.22 1 12 -16.60 161.50 TC 25 1002 7 254
1970 SP MM 09:00:00 TS -16.75 160.94 508 508 P_____P_PPP_P_ SH051970 -16.71 160.85 12 -1 -16.74 160.85 1002 -16.95 161.16 30 997 -16.71 160.87 TC 25 1002 -16.74 160.85 1 14 -16.71 161.14 TC 25 1002 7 255
1970 SP MM 11:00:00 TS -16.81 160.70 522 522 P_____O_PPO_P_ SH051970 -16.77 160.62 14 -1 -16.80 160.60 1002 -16.99 160.92 30 997 -16.77 160.62 TC 25 1002 -16.80 160.60 1 15 -16.77 160.91 TC 25 1002 7 256
1970 SP MM 12:00:00 TS -16.84 160.58 30 997 wellington 529 529 O_____P_OOP_O_ jtwc_sh SH051970 -16.80 160.50 15 -1 -16.83 160.48 1002 -17.00 160.80 30 997 -16.80 160.50 TC 25 1002 -16.83 160.48 1 15 -16.80 160.80 TC 25 1002 7 260
1970 SP MM 15:00:00 TS -16.89 160.20 552 552 P_____P_PPP_P_ SH051970 -16.86 160.09 17 -1 -16.89 160.11 1002 -17.02 160.42 30 997 -16.87 160.13 TC 25 1002 -16.89 160.11 1 18 -16.86 160.45 TC 25 1002 7 262
1970 SP EA 18:00:00 TS -16.93 159.83 583 583 O_____P_PPP_O_ jtwc_sh SH051970 -16.90 159.70 20 -1 -16.95 159.76 1002 -17.02 160.03 30 997 -16.93 159.78 TC 25 1002 -16.95 159.76 1 20 -16.90 160.10 TC 25 1002 7 263
1970 SP EA 21:00:00 TS -16.97 159.49 600 600 P_____P_PPP_P_ SH051970 -16.96 159.39 22 -1 -16.98 159.42 1002 -17.01 159.66 30 997 -16.97 159.43 TC 25 1002 -16.98 159.42 1 23 -16.96 159.74 TC 25 1002 6 264
1970 SP EA 23:00:00 TS -16.99 159.28 1002 bom 617 617 P_____O_PPO_P_ SH051970 -16.99 159.19 24 -1 -17.00 159.20 1002 -17.00 159.42 30 997 -16.99 159.21 TC 25 1002 -17.00 159.20 1 25 -16.99 159.51 TC 25 1002 6 265
1970 SP EA 1970-01-05 00:00:00 TS -17.00 159.17 626 626 O_____P_OOP_O_ jtwc_sh SH051970 -17.00 159.10 25 -1 -17.01 159.10 1002 -17.00 159.30 30 997 -17.00 159.10 TC 25 1002 -17.01 159.09 1 24 -17.00 159.40 TC 25 1002 6 267
1970 SP EA 03:00:00 TS -17.02 158.86 651 651 P_____P_PPP_P_ SH051970 -17.01 158.80 22 -1 -17.03 158.80 1002 -17.00 158.96 30 997 -17.03 158.79 TC 25 1002 -17.03 158.78 1 23 -17.01 159.09 TC 25 1002 6 269
1970 SP EA 06:00:00 TS -17.02 158.56 678 678 O_____P_PPP_O_ jtwc_sh SH051970 -17.00 158.50 20 -1 -17.04 158.50 1002 -17.01 158.64 30 997 -17.04 158.49 TC 25 1002 -17.03 158.49 1 22 -17.00 158.80 TC 25 1002 6 270
1970 SP EA 09:00:00 TS -17.02 158.27 704 704 P_____P_PPP_P_ SH051970 -17.01 158.20 20 -1 -17.02 158.21 1002 -17.01 158.35 30 997 -17.03 158.20 TC 25 1002 -17.02 158.19 1 20 -17.01 158.51 TC 25 1002 6 271
1970 SP EA 11:00:00 TS -17.01 158.07 1002 bom 722 722 P_____O_PPO_P_ SH051970 -17.01 158.00 20 -1 -17.00 158.00 1002 -17.00 158.18 30 997 -17.01 158.00 TC 25 1002 -17.00 158.00 1 20 -17.01 158.31 TC 25 1002 6 274
1970 SP EA 12:00:00 TS -17.00 157.97 731 731 O_____P_OOP_O_ jtwc_sh SH051970 -17.00 157.90 20 -1 -16.99 157.88 1002 -17.00 158.10 30 997 -17.00 157.90 TC 25 1002 -16.99 157.89 1 20 -17.00 158.20 TC 25 1002 6 278
1970 SP EA 15:00:00 TS -16.95 157.65 765 765 P_____P_PPP_P_ SH051970 -16.96 157.60 22 -1 -16.92 157.49 1002 -16.99 157.90 30 997 -16.95 157.55 TC 25 1002 -16.96 157.57 1 21 -16.91 157.86 TC 25 1002 6 281
1970 SP EA 18:00:00 TS -16.89 157.34 801 801 O_____P_PPP_O_ jtwc_sh SH051970 -16.90 157.30 25 -1 -16.85 157.12 1002 -16.96 157.73 30 997 -16.87 157.19 TC 25 1002 -16.91 157.25 1 22 -16.80 157.50 TC 25 1002 6 282
1970 SP EA 21:00:00 TS -16.83 157.04 835 835 P_____P_PPP_P_ SH051970 -16.86 156.98 25 -1 -16.76 156.78 1002 -16.94 157.57 30 997 -16.79 156.86 TC 25 1002 -16.85 156.97 1 24 -16.75 157.11 TC 25 1002 6 282
1970 SP EA 23:00:00 TS -16.79 156.86 1003 bom 844 844 P_____O_PPO_P_ SH051970 -16.82 156.78 25 -1 -16.70 156.60 1003 -16.91 157.46 30 997 -16.73 156.68 TC 25 1002 -16.80 156.80 1 25 -16.72 156.89 TC 25 1002 5 285
1970 SP EA 1970-01-06 00:00:00 TS -16.76 156.78 848 842 O_____P_OOP_O_ jtwc_sh SH051970 -16.80 156.70 25 -1 -16.68 156.53 1003 -16.90 157.40 30 997 -16.70 156.60 TC 25 1003 -16.77 156.73 1 25 -16.70 156.80 TC 25 1003 4 292
1970 SP EA 03:00:00 TS -16.69 156.60 846 841 P_____P_PPP_P_ SH051970 -16.71 156.52 27 -1 -16.61 156.38 1003 -16.88 157.17 30 997 -16.63 156.43 TC 25 1003 -16.69 156.54 1 26 -16.60 156.66 TC 25 1003 3 299
1970 SP EA 06:00:00 TS -16.60 156.48 841 835 O_____P_PPP_O_ jtwc_sh SH051970 -16.60 156.40 30 -1 -16.53 156.29 1003 -16.85 156.94 30 997 -16.56 156.33 TC 25 1003 -16.59 156.39 1 27 -16.50 156.60 TC 25 1003 3 305
1970 SP EA 09:00:00 TS -16.52 156.36 835 835 P_____P_PPP_P_ SH051970 -16.51 156.29 30 -1 -16.46 156.23 1003 -16.79 156.70 30 997 -16.48 156.26 TC 25 1003 -16.48 156.27 1 29 -16.45 156.50 TC 25 1003 3 309
1970 SP EA 11:00:00 TS -16.47 156.30 1003 bom 840 830 P_____O_PPO_P_ SH051970 -16.44 156.23 30 -1 -16.40 156.20 1003 -16.73 156.56 30 997 -16.43 156.22 TC 25 1003 -16.40 156.20 1 30 -16.42 156.43 TC 25 1003 3 314
1970 SP EA 12:00:00 TS -16.43 156.26 830 825 O_____P_OOP_O_ jtwc_sh SH051970 -16.40 156.20 30 -1 -16.37 156.17 1003 -16.70 156.50 30 997 -16.40 156.20 TC 25 1003 -16.36 156.16 1 28 -16.40 156.40 TC 25 1003 3 317
1970 SP EA 15:00:00 TS -16.31 156.15 830 821 P_____P_PPP_P_ SH051970 -16.25 156.09 25 -1 -16.28 156.08 1003 -16.55 156.33 30 997 -16.31 156.11 TC 23 1003 -16.24 156.06 1 25 -16.31 156.29 TC 25 1003 3 322
1970 SP EA 18:00:00 TS -16.18 156.05 821 816 O_____P_PPP_O_ jtwc_sh SH051970 -16.10 156.00 20 -1 -16.18 155.99 1003 -16.37 156.18 30 997 -16.22 156.02 TC 22 1003 -16.11 155.98 1 21 -16.20 156.20 TC 25 1003 3 328
1970 SP EA 21:00:00 TS -16.06 155.98 816 807 P_____P_PPP_P_ SH051970 -15.99 155.94 17 -1 -16.08 155.93 1003 -16.18 156.07 30 997 -16.11 155.95 TC 21 1003 -15.98 155.93 1 17 -16.10 156.14 TC 22 1003 3 334
1970 SP EA 23:00:00 TS -15.98 155.95 1004 bom 807 807 P_____O_PPO_P_ SH051970 -15.93 155.91 15 -1 -16.00 155.90 1004 -16.06 156.02 30 997 -16.04 155.91 TC 20 1003 -15.90 155.90 1 15 -16.03 156.11 TC 20 1003 2 346
1970 SP EA 1970-01-07 00:00:00 TS -15.95 155.94 803 793 O_____P_OOP_O_ jtwc_sh SH051970 -15.90 155.90 15 -1 -15.96 155.89 1004 -16.00 156.00 30 997 -16.00 155.90 TC 20 1004 -15.86 155.89 1 15 -16.00 156.10 TC 20 1004 2 0
1970 SP EA 03:00:00 TS -15.84 155.92 793 784 P_____P_PPP_P_ SH051970 -15.80 155.89 17 -1 -15.84 155.87 1004 -15.86 155.96 30 997 -15.88 155.87 TC 20 1004 -15.76 155.87 1 16 -15.91 156.09 TC 20 1004 2 354
1970 SP EA 06:00:00 TS -15.72 155.93 784 775 O_____P_PPP_O_ jtwc_sh SH051970 -15.70 155.90 20 -1 -15.71 155.87 1004 -15.73 155.96 30 997 -15.76 155.87 TC 20 1004 -15.66 155.87 1 17 -15.80 156.10 TC 20 1004 2 7
1970 SP EA 09:00:00 TS -15.61 155.93 775 765 P_____P_PPP_P_ SH051970 -15.60 155.89 20 -1 -15.59 155.89 1004 -15.62 155.98 30 997 -15.63 155.88 TC 20 1004 -15.56 155.89 1 19 -15.65 156.10 TC 20 1004 2 8
1970 SP EA 11:00:00 TS -15.53 155.94 1004 bom 765 765 P_____O_PPO_P_ SH051970 -15.53 155.89 20 -1 -15.50 155.90 1004 -15.54 155.99 30 997 -15.54 155.89 TC 20 1004 -15.50 155.90 1 20 -15.55 156.10 TC 20 1004 2 6
1970 SP EA 12:00:00 TS -15.49 155.94 765 750 O_____P_OOP_O_ jtwc_sh SH051970 -15.50 155.90 20 -1 -15.45 155.90 1004 -15.50 156.00 30 997 -15.50 155.90 TC 20 1004 -15.47 155.90 1 20 -15.50 156.10 TC 20 1004 2 0
1970 SP EA 15:00:00 TS -15.37 155.96 750 741 P_____P_PPP_P_ SH051970 -15.40 155.95 20 -1 -15.32 155.93 1004 -15.37 155.99 30 997 -15.37 155.92 TC 20 1004 -15.36 155.93 1 20 -15.40 156.09 TC 20 1004 2 8
1970 SP EA 18:00:00 TS -15.26 155.99 741 722 O_____P_PPP_O_ jtwc_sh SH051970 -15.30 156.00 20 -1 -15.18 155.95 1004 -15.24 155.98 30 997 -15.24 155.94 TC 20 1004 -15.26 155.95 1 20 -15.30 156.10 TC 20 1004 2 9
1970 SP EA 21:00:00 TS -15.14 156.01 722 722 P_____P_PPP_P_ SH051970 -15.20 156.00 20 -1 -15.07 155.98 1004 -15.12 155.99 30 997 -15.11 155.97 TC 20 1004 -15.16 155.98 1 20 -15.14 156.15 TC 20 1004 2 9
1970 SP EA 23:00:00 TS -15.07 156.02 1004 bom 722 713 P_____O_PPO_P_ SH051970 -15.13 156.00 20 -1 -15.00 156.00 1004 -15.04 155.99 30 997 -15.03 155.99 TC 20 1004 -15.10 156.00 1 20 -15.04 156.19 TC 20 1004 2 0
1970 SP EA 1970-01-08 00:00:00 TS -15.04 156.03 713 707 O_____P_OOP_O_ jtwc_sh SH051970 -15.10 156.00 20 -1 -14.98 156.01 1004 -15.00 156.00 30 997 -15.00 156.00 TC 20 1004 -15.07 156.01 1 19 -15.00 156.20 TC 20 1004 2 20
1970 SP EA 03:00:00 TS -14.95 156.06 707 698 P_____P_PPP_P_ SH051970 -14.99 156.05 17 -1 -14.93 156.02 1004 -14.90 156.03 30 997 -14.92 156.02 TC 20 1004 -14.99 156.03 1 18 -14.93 156.20 TC 20 1004 2 18
1970 SP EA 06:00:00 TS -14.88 156.09 698 689 O_____P_PPP_O_ jtwc_sh SH051970 -14.90 156.10 15 -1 -14.90 156.04 1004 -14.80 156.07 30 997 -14.85 156.03 TC 20 1004 -14.92 156.05 1 17 -14.90 156.20 TC 20 1004 1 24
1970 SP EA 09:00:00 TS -14.82 156.11 689 689 P_____P_PPP_P_ SH051970 -14.85 156.10 15 -1 -14.85 156.07 1004 -14.70 156.13 30 997 -14.78 156.06 TC 20 1004 -14.85 156.08 1 15 -14.87 156.24 TC 20 1004 1 21
1970 SP EA 11:00:00 TS -14.78 156.13 1004 bom 689 689 P_____O_PPO_P_ SH051970 -14.82 156.10 15 -1 -14.80 156.10 1004 -14.64 156.17 30 997 -14.73 156.08 TC 20 1004 -14.80 156.10 1 15 -14.83 156.28 TC 20 1004 2 24
1970 SP EA 12:00:00 TS -14.75 156.15 680 664 O_____P_OOP_O_ jtwc_sh SH051970 -14.80 156.10 15 -1 -14.76 156.12 1004 -14.60 156.20 30 997 -14.70 156.10 TC 20 1004 -14.78 156.11 1 15 -14.80 156.30 TC 20 1004 2 28
1970 SP EA 15:00:00 TS -14.64 156.20 664 649 P_____P_PPP_P_ SH051970 -14.70 156.14 15 -1 -14.62 156.18 1004 -14.47 156.29 30 997 -14.59 156.16 TC 20 1004 -14.72 156.15 1 15 -14.66 156.34 TC 20 1004 3 26
1970 SP EA 18:00:00 TS -14.51 156.27 649 640 O_____P_PPP_O_ jtwc_sh SH051970 -14.60 156.20 15 -1 -14.45 156.26 1004 -14.34 156.39 30 997 -14.46 156.23 TC 20 1004 -14.65 156.19 1 15 -14.50 156.40 TC 20 1004 3 31
1970 SP EA 21:00:00 TS -14.41 156.34 640 625 P_____P_PPP_P_ SH051970 -14.56 156.24 15 -1 -14.29 156.34 1004 -14.21 156.50 30 997 -14.33 156.31 TC 20 1004 -14.57 156.25 1 15 -14.34 156.50 TC 20 1004 3 36
1970 SP EA 23:00:00 TS -14.34 156.39 1004 bom 625 625 P_____O_PPO_P_ SH051970 -14.53 156.28 15 -1 -14.20 156.40 1004 -14.13 156.57 30 997 -14.24 156.37 TC 20 1004 -14.50 156.30 1 15 -14.24 156.57 TC 20 1004 3 39
1970 SP EA 1970-01-09 00:00:00 TS -14.31 156.42 625 609 O_____P_OOP_O_ jtwc_sh SH051970 -14.50 156.30 15 -1 -14.17 156.42 1004 -14.10 156.60 30 997 -14.20 156.40 TC 20 1004 -14.46 156.32 1 15 -14.20 156.60 TC 20 1004 2 34
1970 SP EA 03:00:00 TS -14.21 156.48 609 594 P_____P_PPP_P_ SH051970 -14.37 156.38 15 -1 -14.11 156.46 1004 -14.06 156.65 30 997 -14.11 156.47 TC 20 1004 -14.34 156.39 1 15 -14.08 156.65 TC 20 1004 2 35
1970 SP EA 06:00:00 TS -14.10 156.56 594 578 O_____P_PPP_O_ jtwc_sh SH051970 -14.20 156.50 15 -1 -14.05 156.52 1004 -14.04 156.70 30 997 -14.03 156.55 TC 20 1004 -14.19 156.48 1 15 -14.00 156.70 TC 20 1004 3 39
1970 SP EA 09:00:00 TS -13.99 156.67 578 563 P_____P_PPP_P_ SH051970 -14.01 156.63 15 -1 -13.98 156.61 1004 -14.00 156.78 30 997 -13.93 156.65 TC 20 1004 -14.02 156.60 1 15 -13.97 156.77 TC 20 1004 3 42
1970 SP EA 11:00:00 TS -13.89 156.76 1004 bom 563 554 P_____O_PPO_P_ SH051970 -13.87 156.74 15 -1 -13.90 156.70 1004 -13.94 156.85 30 997 -13.85 156.75 TC 20 1004 -13.90 156.70 1 15 -13.94 156.85 TC 20 1004 4 44
1970 SP EA 12:00:00 TS -13.84 156.82 554 523 O_____P_OOP_O_ jtwc_sh SH051970 -13.80 156.80 15 -1 -13.84 156.76 1004 -13.90 156.90 30 997 -13.80 156.80 TC 20 1004 -13.83 156.76 1 15 -13.90 156.90 TC 20 1004 5 44
1970 SP EA 15:00:00 TS -13.63 157.02 523 492 P_____P_PPP_P_ SH051970 -13.61 156.98 17 -1 -13.63 156.98 1004 -13.70 157.10 30 997 -13.59 157.01 TC 20 1004 -13.61 156.96 1 16 -13.67 157.13 TC 20 1004 6 44
1970 SP EA 18:00:00 TS -13.40 157.26 486 455 O_____P_PPP_O_ jtwc_sh SH051970 -13.40 157.20 20 -1 -13.39 157.25 1004 -13.45 157.34 30 997 -13.36 157.26 TC 20 1004 -13.37 157.18 1 17 -13.40 157.40 TC 20 1004 7 45
1970 SP EA 21:00:00 TS -13.15 157.52 455 425 P_____P_PPP_P_ SH051970 -13.14 157.44 20 -1 -13.15 157.52 1004 -13.18 157.61 30 997 -13.12 157.53 TC 20 1004 -13.14 157.43 1 19 -13.18 157.66 TC 20 1004 7 47
1970 SP EA 23:00:00 TS -13.00 157.70 1004 bom 425 410 P_____O_PPO_P_ SH051970 -12.97 157.61 20 -1 -13.00 157.70 1004 -12.99 157.80 30 997 -12.97 157.71 TC 20 1004 -13.00 157.60 1 20 -13.06 157.82 TC 20 1004 7 48
1970 SP EA 1970-01-10 00:00:00 TS -12.92 157.78 410 389 O_____P_OOP_O_ jtwc_sh SH051970 -12.90 157.70 20 -1 -12.94 157.78 1004 -12.90 157.90 30 997 -12.90 157.80 TC 20 1004 -12.94 157.68 1 20 -13.00 157.90 TC 20 1004 6 51
1970 SP EA 03:00:00 TS -12.75 158.01 379 358 P_____P_PPP_P_ SH051970 -12.73 157.95 20 -1 -12.77 158.00 1004 -12.66 158.16 30 997 -12.74 158.02 TC 20 1004 -12.77 157.92 1 20 -12.84 158.10 TC 20 1004 6 54
1970 SP EA 06:00:00 TS -12.60 158.25 353 334 O_____P_PPP_O_ jtwc_sh SH051970 -12.60 158.20 20 -1 -12.61 158.22 1004 -12.43 158.43 30 997 -12.61 158.24 TC 20 1004 -12.61 158.17 1 20 -12.70 158.30 TC 20 1004 6 58
1970 SP EA 09:00:00 TS -12.46 158.50 334 314 P_____P_PPP_P_ SH051970 -12.49 158.45 20 -1 -12.48 158.44 1004 -12.21 158.71 30 997 -12.50 158.46 TC 20 1004 -12.48 158.42 1 20 -12.54 158.54 TC 20 1004 6 61
1970 SP EA 11:00:00 TS -12.37 158.67 1004 bom 314 304 P_____O_PPO_P_ SH051970 -12.43 158.62 20 -1 -12.40 158.60 1004 -12.07 158.90 30 997 -12.43 158.62 TC 20 1004 -12.40 158.60 1 20 -12.44 158.71 TC 20 1004 6 63
1970 SP EA 12:00:00 TS -12.33 158.75 300 282 O_____P_OOP_O_ jtwc_sh SH051970 -12.40 158.70 20 -1 -12.36 158.69 1004 -12.00 159.00 30 997 -12.40 158.70 TC 20 1004 -12.36 158.69 1 20 -12.40 158.80 TC 20 1004 6 65
1970 SP EA 15:00:00 TS -12.21 159.02 282 263 P_____P_PPP_P_ SH051970 -12.30 158.94 20 -1 -12.25 158.96 1004 -11.79 159.30 30 997 -12.29 158.96 TC 20 1004 -12.25 158.96 1 20 -12.29 159.04 TC 20 1004 6 66
1970 SP EA 18:00:00 TS -12.10 159.29 263 247 O_____P_PPP_O_ jtwc_sh SH051970 -12.20 159.20 20 -1 -12.15 159.24 1004 -11.60 159.60 30 997 -12.19 159.24 TC 20 1004 -12.15 159.24 1 20 -12.20 159.30 TC 20 1004 6 68
1970 SP EA 21:00:00 TS -11.99 159.58 247 235 P_____P_PPP_P_ SH051970 -12.10 159.50 20 -1 -12.06 159.52 1004 -11.44 159.90 30 997 -12.10 159.52 TC 20 1004 -12.06 159.52 1 20 -12.10 159.60 TC 20 1004 6 70
1970 SP EA 23:00:00 TS -11.92 159.77 1004 bom 235 227 P_____O_PPO_P_ SH051970 -12.03 159.70 20 -1 -12.00 159.70 1004 -11.34 160.10 30 997 -12.03 159.71 TC 20 1004 -12.00 159.70 1 20 -12.03 159.80 TC 20 1004 6 70
1970 SP EA 1970-01-11 00:00:00 TS -11.89 159.87 227 203 O_____P_OOP_O_ jtwc_sh SH051970 -12.00 159.80 20 -1 -11.96 159.79 1004 -11.30 160.20 30 997 -12.00 159.80 TC 20 1004 -11.96 159.79 1 20 -12.00 159.90 TC 20 1004 6 68
1970 SP MM 03:00:00 TS -11.78 160.13 203 172 P_____P_PPP_P_ SH051970 -11.90 160.06 22 -1 -11.86 160.04 1004 -11.18 160.49 30 997 -11.89 160.05 TC 20 1004 -11.86 160.04 1 23 -11.90 160.16 TC 20 1004 5 68
1970 SP MM 06:00:00 TS -11.68 160.38 172 149 O_____P_PPP_O_ jtwc_sh SH051970 -11.80 160.30 25 -1 -11.75 160.28 1004 -11.10 160.77 30 997 -11.78 160.30 TC 20 1004 -11.75 160.28 1 25 -11.80 160.40 TC 20 1004 5 68
1970 SP MM 09:00:00 TS -11.59 160.63 149 126 P_____P_PPP_P_ SH051970 -11.70 160.55 27 -1 -11.66 160.53 1004 -11.04 161.04 30 997 -11.69 160.55 TC 20 1004 -11.66 160.53 1 28 -11.69 160.65 TC 20 1004 5 70
1970 SP MM 11:00:00 TS -11.53 160.80 126 120 P_____O_PPO_P_ SH051970 -11.63 160.72 29 -1 -11.60 160.70 1004 -11.01 161.22 30 997 -11.63 160.71 TC 20 1004 -11.60 160.70 1 30 -11.63 160.82 TC 20 1004 5 71
1970 SP MM 12:00:00 TS -11.51 160.88 30 997 wellington 120 99 O_____P_OOP_O_ jtwc_sh SH051970 -11.60 160.80 30 -1 -11.57 160.79 1004 -11.00 161.30 30 997 -11.60 160.80 TC 20 1004 -11.57 160.79 1 28 -11.60 160.90 TC 20 1004 5 72
1970 SP MM 15:00:00 TS -11.42 161.14 99 80 P_____P_PPP_P_ SH051970 -11.48 161.04 25 -1 -11.49 161.06 1004 -10.97 161.55 30 997 -11.51 161.07 TC 20 1004 -11.49 161.06 1 23 -11.54 161.14 TC 20 1004 5 74
1970 SP MM 18:00:00 TS -11.37 161.40 80 57 O_____P_PPP_O_ jtwc_sh SH051970 -11.40 161.30 20 -1 -11.43 161.34 1004 -10.95 161.79 30 997 -11.44 161.34 TC 20 1004 -11.43 161.34 1 18 -11.50 161.40 TC 20 1004 5 81
1970 SP MM 21:00:00 TS -11.34 161.68 57 56 P_____P_PPP_P_ SH051970 -11.38 161.60 15 -1 -11.40 161.61 1004 -10.97 162.00 30 997 -11.40 161.62 TC 20 1004 -11.40 161.61 1 13 -11.44 161.70 TC 20 1004 5 87
1970 SP MM 23:00:00 TS -11.34 161.86 56 56 P_____O_PPO_P_ SH051970 -11.39 161.80 11 -1 -11.40 161.80 1004 -10.99 162.14 30 997 -11.39 161.81 TC 20 1004 -11.40 161.80 1 10 -11.41 161.90 TC 20 1004 5 92
1970 SP MM 1970-01-12 00:00:00 TS -11.34 161.96 30 997 wellington 56 56 O_____P_OOP_O_ jtwc_sh SH051970 -11.40 161.90 10 -1 -11.40 161.90 1004 -11.00 162.20 30 997 -11.40 161.90 TC 20 1004 -11.40 161.90 1 10 -11.40 162.00 TC 20 1004 5 97
1970 SP MM 03:00:00 TS -11.38 162.22 67 67 P_____P_PPP_P_ SH051970 -11.43 162.15 12 -1 -11.44 162.19 1004 -11.05 162.39 30 997 -11.45 162.20 TC 20 1004 -11.44 162.20 1 13 -11.43 162.25 TC 20 1004 5 102
1970 SP MM 06:00:00 TS -11.45 162.47 81 81 O_____P_PPP_O_ jtwc_sh SH051970 -11.50 162.40 15 -1 -11.51 162.47 1004 -11.11 162.55 30 997 -11.54 162.50 TC 20 1004 -11.51 162.49 1 15 -11.50 162.50 TC 20 1004 5 108
1970 SP MM 09:00:00 TS -11.55 162.74 89 89 P_____P_PPP_P_ SH051970 -11.58 162.71 17 -1 -11.62 162.74 1004 -11.20 162.69 30 997 -11.66 162.77 TC 20 1004 -11.61 162.75 1 18 -11.59 162.81 TC 20 1004 5 112
1970 SP MM 11:00:00 TS -11.63 162.91 110 110 P_____O_PPO_P_ SH051970 -11.65 162.91 19 -1 -11.70 162.90 1004 -11.26 162.77 30 997 -11.75 162.93 TC 20 1004 -11.70 162.90 1 20 -11.66 163.01 TC 20 1004 5 118
1970 SP MM 12:00:00 TS -11.67 162.98 30 997 wellington 126 126 O_____P_OOP_O_ jtwc_sh SH051970 -11.70 163.00 20 -1 -11.74 162.98 1004 -11.30 162.80 30 997 -11.80 163.00 TC 20 1004 -11.74 162.97 1 19 -11.70 163.10 TC 20 1004 5 127
1970 SP MM 15:00:00 TS -11.81 163.16 148 148 P_____P_PPP_P_ SH051970 -11.88 163.19 17 -1 -11.89 163.20 1004 -11.38 162.89 30 997 -11.94 163.18 TC 20 1004 -11.88 163.16 1 18 -11.83 163.34 TC 20 1004 4 134
1970 SP MM 17:00:00 TS -11.93 163.25 157 157 P_____O_PPP_P_ SH051970 -12.03 163.27 15 -1 -12.00 163.30 1004 -11.45 162.93 30 997 -12.04 163.27 TC 20 1004 -11.99 163.25 1 17 -11.94 163.46 TC 20 1004 4 145
1970 SP MM 18:00:00 TS -11.98 163.28 173 173 O_____P_POP_O_ jtwc_sh SH051970 -12.10 163.30 15 -1 -12.06 163.34 1004 -11.48 162.95 30 997 -12.10 163.30 TC 20 1004 -12.05 163.29 1 17 -12.00 163.50 TC 20 1004 4 156
1970 SP MM 21:00:00 TS -12.17 163.36 197 197 P_____P_PPP_P_ SH051970 -12.28 163.38 15 -1 -12.25 163.40 1004 -11.62 162.98 30 997 -12.28 163.38 TC 20 1004 -12.25 163.38 1 15 -12.18 163.60 TC 20 1004 4 165
1970 SP MM 23:00:00 TS -12.30 163.37 206 206 P_____O_PPO_P_ SH051970 -12.42 163.40 15 -1 -12.40 163.40 1004 -11.73 162.99 30 997 -12.42 163.40 TC 20 1004 -12.40 163.40 1 15 -12.32 163.61 TC 20 1004 4 0
1970 SP MM 1970-01-13 00:00:00 TS -12.38 163.37 30 997 wellington 215 215 O_____P_OOP_O_ jtwc_sh SH051970 -12.50 163.40 15 -1 -12.48 163.40 1004 -11.80 163.00 30 997 -12.50 163.40 TC 20 1004 -12.48 163.41 1 15 -12.40 163.60 TC 20 1004 5 184
1970 SP MM 03:00:00 TS -12.65 163.35 229 229 P_____P_PPP_P_ SH051970 -12.79 163.37 15 -1 -12.75 163.37 1004 -12.06 163.05 30 997 -12.76 163.37 TC 20 1004 -12.75 163.39 1 15 -12.64 163.52 TC 20 1004 6 189
1970 SP MM 06:00:00 TS -12.94 163.28 259 259 O_____P_PPP_O_ jtwc_sh SH051970 -13.10 163.30 15 -1 -13.04 163.30 1004 -12.36 163.09 30 997 -13.04 163.28 TC 20 1004 -13.04 163.31 1 15 -12.90 163.40 TC 20 1004 6 194
1970 SP MM 09:00:00 TS -13.23 163.20 286 286 P_____P_PPP_P_ SH051970 -13.36 163.22 15 -1 -13.32 163.19 1004 -12.69 163.08 30 997 -13.33 163.15 TC 20 1004 -13.32 163.19 1 15 -13.21 163.36 TC 20 1004 6 197
1970 SP MM 11:00:00 TS -13.41 163.13 303 303 P_____O_PPO_P_ SH051970 -13.52 163.15 15 -1 -13.50 163.10 1004 -12.90 163.04 30 997 -13.51 163.05 TC 20 1004 -13.50 163.10 1 15 -13.41 163.33 TC 20 1004 6 203
1970 SP MM 12:00:00 TS -13.49 163.09 30 997 wellington 314 314 O_____P_OOP_O_ jtwc_sh SH051970 -13.60 163.10 15 -1 -13.58 163.06 1004 -13.00 163.00 30 997 -13.60 163.00 TC 20 1004 -13.58 163.06 1 14 -13.50 163.30 TC 20 1004 5 214
1970 SP MM 15:00:00 TS -13.71 162.92 331 331 P_____P_PPP_P_ SH051970 -13.81 162.91 12 -1 -13.78 162.91 1004 -13.27 162.82 30 997 -13.82 162.86 TC 20 1004 -13.78 162.91 1 13 -13.72 163.12 TC 20 1004 6 220
1970 SP MM 18:00:00 TS -13.91 162.72 349 349 O_____P_PPP_O_ jtwc_sh SH051970 -14.00 162.70 10 -1 -13.98 162.74 1004 -13.52 162.58 30 997 -14.01 162.69 TC 20 1004 -13.98 162.74 1 12 -13.90 162.90 TC 20 1004 6 224
1970 SP MM 21:00:00 TS -14.12 162.52 370 370 P_____P_PPP_P_ SH051970 -14.20 162.51 10 -1 -14.17 162.54 1004 -13.77 162.29 30 997 -14.20 162.51 TC 20 1004 -14.17 162.54 1 10 -14.10 162.76 TC 20 1004 6 225
1970 SP MM 23:00:00 TS -14.25 162.38 392 391 P_____O_PPO_P_ SH051970 -14.33 162.37 10 -1 -14.30 162.40 1004 -13.92 162.10 30 997 -14.33 162.37 TC 20 1004 -14.30 162.40 1 10 -14.23 162.66 TC 20 1004 6 225
1970 SP MM 1970-01-14 00:00:00 TS -14.32 162.31 30 997 wellington 391 391 O_____P_OOP_O_ jtwc_sh SH051970 -14.40 162.30 10 -1 -14.37 162.33 1004 -14.00 162.00 30 997 -14.40 162.30 TC 20 1004 -14.37 162.33 1 10 -14.30 162.60 TC 20 1004 6 226
1970 SP MM 03:00:00 TS -14.53 162.08 414 414 P_____P_PPP_P_ SH051970 -14.59 162.06 10 -1 -14.60 162.10 1004 -14.22 161.79 30 997 -14.63 162.08 TC 20 1004 -14.60 162.10 1 10 -14.49 162.36 TC 20 1004 6 227
1970 SP MM 06:00:00 TS -14.75 161.83 447 447 O_____P_PPP_O_ jtwc_sh SH051970 -14.80 161.80 10 -1 -14.83 161.85 1004 -14.43 161.57 30 997 -14.86 161.84 TC 20 1004 -14.83 161.85 1 10 -14.70 162.10 TC 20 1004 7 227
1970 SP MM 09:00:00 TS -14.99 161.57 470 470 P_____P_PPP_P_ SH051970 -15.06 161.54 10 -1 -15.06 161.59 1004 -14.65 161.32 30 997 -15.09 161.58 TC 20 1004 -15.06 161.59 1 10 -14.96 161.86 TC 20 1004 7 227
1970 SP MM 11:00:00 TS -15.15 161.39 483 483 P_____O_PPO_P_ SH051970 -15.23 161.38 10 -1 -15.20 161.40 1004 -14.81 161.12 30 997 -15.23 161.40 TC 20 1004 -15.20 161.40 1 10 -15.13 161.69 TC 20 1004 7 229
1970 SP MM 12:00:00 TS -15.22 161.31 30 997 wellington 495 495 O_____P_OOP_O_ jtwc_sh SH051970 -15.30 161.30 10 -1 -15.26 161.32 1004 -14.90 161.00 30 997 -15.30 161.30 TC 20 1004 -15.26 161.32 1 10 -15.20 161.60 TC 20 1004 6 234
1970 SP MM 15:00:00 TS -15.40 161.04 522 522 P_____P_PPP_P_ SH051970 -15.46 161.13 10 -1 -15.42 161.07 1004 -15.20 160.57 32 995 -15.46 161.03 TC 20 1004 -15.42 161.07 1 11 -15.36 161.31 TC 20 1004 6 237
1970 SP MM 18:00:00 TS -15.57 160.74 550 550 O_____P_PPP_O_ jtwc_sh SH051970 -15.60 160.90 10 -1 -15.57 160.79 1004 -15.52 160.08 35 993 -15.62 160.74 TC 20 1004 -15.57 160.79 1 12 -15.50 161.00 TC 20 1004 7 240
1970 SP MM 21:00:00 TS -15.77 160.37 579 579 P_____P_PPP_P_ SH051970 -15.77 160.50 12 -1 -15.75 160.46 1004 -15.86 159.54 37 991 -15.79 160.40 TC 20 1004 -15.75 160.46 1 14 -15.68 160.74 TC 20 1004 9 241
1970 SP MM 23:00:00 TS -15.92 160.09 599 599 P_____O_PPO_P_ SH051970 -15.91 160.17 14 -1 -15.90 160.20 1004 -16.09 159.18 39 990 -15.92 160.14 TC 20 1004 -15.90 160.20 1 15 -15.82 160.53 TC 20 1004 10 240
1970 SP EA 1970-01-15 00:00:00 TS -16.01 159.93 617 617 O_____P_OOP_O_ jtwc_sh SH051970 -16.00 160.00 15 -1 -15.99 160.05 1004 -16.20 159.00 40 990 -16.00 160.00 TC 20 1004 -15.99 160.05 1 16 -15.90 160.40 TC 20 1004 11 238
1970 SP EA 03:00:00 TS -16.33 159.42 660 652 P_____P_PPP_P_ SH051970 -16.33 159.47 20 -1 -16.30 159.55 1004 -16.54 158.52 40 990 -16.29 159.52 TC 20 1004 -16.30 159.55 1 19 -16.18 159.89 TC 20 1004 12 237
1970 SP EA 06:00:00 TS -16.67 158.87 671 671 O_____P_PPP_O_ jtwc_sh SH051970 -16.70 158.90 25 -1 -16.64 158.98 1004 -16.87 158.03 40 990 -16.63 158.97 TC 20 1004 -16.64 158.98 1 23 -16.50 159.30 TC 20 1004 13 238
1970 SP EA 09:00:00 TS -17.00 158.31 704 704 P_____P_PPP_P_ SH051970 -17.01 158.35 27 -1 -16.98 158.39 1004 -17.20 157.53 40 990 -16.97 158.39 TC 20 1004 -16.98 158.39 1 27 -16.86 158.75 TC 20 1004 13 239
1970 SP EA 11:00:00 TS -17.21 157.93 1004 bom 729 729 P_____O_PPO_P_ SH051970 -17.21 157.98 29 -1 -17.20 158.00 1004 -17.40 157.18 40 990 -17.19 157.99 TC 20 1004 -17.20 158.00 1 30 -17.09 158.38 TC 20 1004 12 240
1970 SP EA 12:00:00 TS -17.31 157.75 743 737 O_____P_OOP_O_ jtwc_sh SH051970 -17.30 157.80 30 -1 -17.30 157.82 1004 -17.50 157.00 40 990 -17.30 157.80 TC 20 1004 -17.30 157.82 1 29 -17.20 158.20 TC 20 1004 12 242
1970 SP EA 15:00:00 TS -17.58 157.20 776 776 P_____P_PPP_P_ SH051970 -17.56 157.25 27 -1 -17.57 157.26 1004 -17.78 156.44 40 990 -17.58 157.25 TC 20 1004 -17.57 157.27 1 26 -17.46 157.65 TC 20 1004 12 244
1970 SP EA 18:00:00 TS -17.83 156.64 801 739 O_____P_PPP_O_ jtwc_sh SH051970 -17.80 156.70 25 -1 -17.82 156.71 1004 -18.04 155.84 40 990 -17.84 156.71 TC 20 1004 -17.83 156.72 1 24 -17.70 157.10 TC 20 1004 12 245
1970 SP EA 21:00:00 TS -18.08 156.08 739 701 P_____P_PPP_P_ SH051970 -18.06 156.15 22 -1 -18.05 156.16 1004 -18.28 155.23 40 990 -18.08 156.16 TC 20 1004 -18.06 156.17 1 21 -17.96 156.55 TC 20 1004 12 246
1970 SP EA 23:00:00 TS -18.23 155.71 1004 bom 701 686 P_____O_PPO_P_ SH051970 -18.23 155.78 20 -1 -18.20 155.80 1004 -18.43 154.81 40 990 -18.23 155.79 TC 20 1004 -18.20 155.80 1 20 -18.12 156.18 TC 20 1004 12 247
1970 SP EA 1970-01-16 00:00:00 TS -18.31 155.52 678 625 O_____P_OOP_O_ jtwc_sh SH051970 -18.30 155.60 20 -1 -18.28 155.63 1003 -18.50 154.60 40 990 -18.30 155.60 TC 20 1004 -18.27 155.61 1 20 -18.20 156.00 TC 20 1004 11 249
1970 SP EA 03:00:00 TS -18.50 154.96 625 565 P_____P_PPP_P_ SH051970 -18.46 155.06 22 -1 -18.51 155.14 1000 -18.72 153.95 43 987 -18.50 155.04 TC 26 1001 -18.46 155.05 1 23 -18.41 155.46 TC 27 1001 11 251
1970 SP EA 06:00:00 TS -18.68 154.39 565 529 O_____P_PPP_O_ jtwc_sh SH051970 -18.60 154.50 25 -1 -18.70 154.61 997 -18.92 153.28 47 985 -18.68 154.46 TC 32 998 -18.63 154.48 1 25 -18.60 154.90 TC 35 998 12 252
1970 SP EA 08:00:00 TS -18.79 153.99 996 bom 529 515 P_____O_PPP_P_ SH051970 -18.73 154.11 26 -1 -18.80 154.20 996 -19.05 152.85 50 983 -18.79 154.08 TC 36 995 -18.74 154.09 1 27 -18.70 154.51 TC 38 995 12 253
1970 SP EA 09:00:00 TS -18.85 153.79 515 481 P_____P_PPP_P_ SH051970 -18.80 153.92 27 -1 -18.83 153.97 994 -19.12 152.63 51 982 -18.84 153.89 TC 38 995 -18.79 153.90 1 28 -18.75 154.31 TC 40 995 12 254
1970 SP EA 11:00:00 TS -18.96 153.38 992 bom 472 460 P_____O_PPO_P_ SH051970 -18.94 153.51 29 -1 -18.90 153.50 992 -19.24 152.21 53 980 -18.95 153.50 TC 42 992 -18.90 153.50 1 30 -18.85 153.91 TC 43 992 12 254
1970 SP EA 12:00:00 TS -19.02 153.16 460 428 O_____P_OOP_O_ jtwc_sh SH051970 -19.00 153.30 30 -1 -18.96 153.26 989 -19.30 152.00 55 980 -19.00 153.30 TC 45 992 -18.96 153.29 1 30 -18.90 153.70 TC 45 992 13 253
1970 SP EA 14:00:00 TS -19.14 152.73 985 bom 423 408 P_____O_PPP_P_ SH051970 -19.10 152.87 31 -1 -19.10 152.80 985 -19.44 151.57 56 978 -19.11 152.89 TC 49 988 -19.09 152.86 1 32 -19.03 153.27 TC 50 987 13 253
1970 SP EA 15:00:00 TS -19.20 152.52 403 336 P_____P_PPP_P_ SH051970 -19.15 152.65 32 -1 -19.16 152.58 983 -19.51 151.36 57 977 -19.17 152.68 TC 51 987 -19.16 152.64 1 33 -19.10 153.05 TC 52 986 13 254
1970 SP EA 18:00:00 TS -19.37 151.88 336 274 O_____P_PPP_O_ jtwc_sh SH051970 -19.30 152.00 35 0 -19.35 151.94 979 -19.70 150.77 60 975 -19.33 152.06 TC 57 982 -19.34 151.99 1 35 -19.30 152.40 TC 60 980 12 253
1970 SP EA 21:00:00 TS -19.55 151.28 270 231 P_____P_PPP_P_ SH051970 -19.51 151.37 37 0 -19.51 151.35 974 -19.87 150.23 62 972 -19.48 151.45 TC 63 977 -19.51 151.38 1 38 -19.47 151.77 TC 65 976 12 253
1970 SP EA 23:00:00 TS -19.65 150.91 972 bom 227 217 P_____O_PPO_P_ SH051970 -19.65 150.98 39 0 -19.60 151.00 972 -19.96 149.93 64 970 -19.56 151.08 TC 67 973 -19.60 151.00 2 40 -19.56 151.38 TC 68 973 11 254
1970 SP EA 1970-01-17 00:00:00 TS -19.69 150.73 208 165 O_____P_OOP_O_ jtwc_sh SH051970 -19.70 150.80 40 0 -19.63 150.82 971 -20.00 149.80 65 970 -19.60 150.90 TC 70 972 -19.63 150.82 2 40 -19.60 151.20 TC 70 972 9 260
1970 SP EA 03:00:00 TS -19.76 150.27 165 127 P_____P_PPP_P_ SH051970 -19.76 150.31 40 0 -19.70 150.33 969 -20.05 149.49 66 968 -19.67 150.37 TC 72 969 -19.70 150.33 2 40 -19.66 150.72 TC 75 969 8 263
1970 SP EA 06:00:00 TS -19.80 149.86 127 85 O_____P_PPP_O_ jtwc_sh SH051970 -19.80 149.90 40 0 -19.75 149.90 966 -20.07 149.27 67 967 -19.72 149.89 TC 75 967 -19.75 149.90 2 40 -19.70 150.30 TC 80 967 7 261
1970 SP EA 09:00:00 TS -19.87 149.50 85 68 P_____P_PPP_P_ SH051970 -19.89 149.51 47 0 -19.83 149.52 964 -20.08 149.12 68 966 -19.79 149.49 TC 77 964 -19.82 149.52 2 40 -19.79 149.86 TC 82 965 7 256
1970 SP EA 11:00:00 TS -19.93 149.30 963 bom 68 53 P_____O_PPO_P_ SH051970 -19.96 149.29 52 0 -19.90 149.30 963 -20.09 149.04 69 965 -19.85 149.28 TC 79 962 -19.90 149.30 2 40 -19.86 149.61 TC 84 963 6 250
1970 SP EA 12:00:00 TS -19.97 149.21 53 45 O_____P_OOP_O_ jtwc_sh SH051970 -20.00 149.20 55 0 -19.95 149.19 962 -20.10 149.00 70 965 -19.90 149.20 TC 80 962 -19.95 149.19 2 55 -19.90 149.50 TC 85 963 5 243
1970 SP EA 13:00:00 TS -20.01 149.13 962 bom 45 30 P_____O_PPO_P_ SH051970 -20.03 149.12 57 0 -20.00 149.10 962 -20.12 148.94 69 965 -19.96 149.13 TC 80 962 -20.00 149.10 3 70 -19.94 149.41 TC 85 962 5 236
1970 SP EA 15:00:00 TS -20.10 149.01 962 bom 30 15 P_____O_PPP_P_ SH051970 -20.09 149.01 62 0 -20.10 149.00 962 4 -20.17 148.83 68 966 -20.10 149.01 TC 80 962 -20.10 148.95 3 70 -20.04 149.25 TC 85 962 4 228
1970 SP EA 17:00:00 TS -20.19 148.92 962 bom 15 15 P_____O_PPP_P_ SH051970 -20.16 148.93 67 1 -20.20 148.90 962 -20.24 148.73 67 967 -20.23 148.93 TC 80 962 -20.20 148.84 3 70 -20.15 149.14 TC 85 962 4 222
1970 SP EA 18:00:00 TS -20.24 148.88 15 0 O_____P_POP_O_ jtwc_sh SH051970 -20.20 148.90 70 1 -20.25 148.86 962 -20.27 148.69 67 967 -20.30 148.90 TC 80 962 -20.25 148.81 3 70 -20.20 149.10 TC 85 962 4 216
1970 SP EA 21:00:00 TS -20.38 148.77 0 0 P_____P_PPP_P_ SH051970 -20.34 148.79 70 1 -20.40 148.76 963 -20.38 148.58 66 968 -20.46 148.79 TC 80 963 -20.40 148.73 3 70 -20.35 148.98 TC 82 963 3 212
1970 SP EA 23:00:00 TS -20.48 148.72 964 bom 0 0 P_____O_PPO_P_ SH051970 -20.45 148.73 70 1 -20.50 148.70 964 -20.46 148.52 65 969 -20.55 148.73 TC 80 963 -20.50 148.70 4 70 -20.45 148.93 TC 80 963 3 209
1970 SP EA 1970-01-18 00:00:00 TS -20.53 148.69 0 0 O_____P_OOP_O_ jtwc_sh SH051970 -20.50 148.70 70 1 -20.55 148.66 966 -20.50 148.50 65 970 -20.60 148.70 TC 80 964 -20.55 148.68 4 70 -20.50 148.90 TC 80 964 3 207
1970 SP EA 03:00:00 TS -20.67 148.61 0 0 P_____P_PPP_P_ SH051970 -20.65 148.64 70 1 -20.69 148.55 975 -20.63 148.45 62 972 -20.75 148.60 TC 67 973 -20.70 148.64 4 70 -20.65 148.79 TC 67 973 3 205
1970 SP EA 05:00:00 TS -20.77 148.57 982 bom 0 0 P_____O_PPP_P_ SH051970 -20.75 148.61 70 1 -20.80 148.50 982 -20.72 148.44 60 974 -20.85 148.53 TC 59 979 -20.80 148.60 4 70 -20.75 148.72 TC 59 979 3 199
1970 SP EA 06:00:00 TS -20.82 148.56 0 0 O_____P_POP_O_ jtwc_sh SH051970 -20.80 148.60 70 1 -20.87 148.49 986 -20.76 148.44 60 975 -20.90 148.50 TC 55 982 -20.85 148.59 4 70 -20.80 148.70 TC 55 982 3 189
1970 SP EA 08:00:00 TS -20.92 148.55 996 bom 0 0 ______O_P_P_P_ SH051970 -1 -21.00 148.50 996 -20.85 148.45 58 976 TC -20.95 148.55 4 70 -20.90 148.68 TC 51 987 3 0
1970 SP EA 09:00:00 TS -20.96 148.54 0 0 ______P_P_P_P_ SH051970 -1 -21.04 148.50 996 -20.89 148.46 57 977 TC -21.00 148.53 4 70 -20.95 148.68 TC 50 990 2 191
1970 SP EA 11:00:00 TS -21.02 148.54 998 bom 0 0 ______O_P_O_P_ SH051970 -1 -21.10 148.50 998 -20.97 148.48 55 979 TC -21.10 148.50 4 70 -21.05 148.69 TC 46 995 1 199
1970 SP EA 12:00:00 TS -21.02 148.54 0 0 ________O___O_ -1 -21.00 148.50 55 980 4 -21.10 148.70 TC 45 998 1 0
1970 SP EA 15:00:00 NR -21.08 148.56 0 0 ________P_____ -1 -21.08 148.56 51 982 4 TC 1 142
1970 SP EA 18:00:00 NR -21.13 148.63 0 0 ________P_____ -1 -21.13 148.63 47 985 4 2 123
1970 SP EA 21:00:00 NR -21.17 148.71 0 0 ________P_____ -1 -21.17 148.71 43 987 4 2 113
1970 SP EA 1970-01-19 00:00:00 NR -21.20 148.80 0 ________O_____ -1 -21.20 148.80 40 990 2 110